Time;durP1;ratioP1;P1;durP2;ratioP2;P2;SDS_P1;SDS_P2;PMS_P1;PMS_P2;Temp;Humidity;BMP_temperature;BMP_pressure;BME280_temperature;BME280_humidity;BME280_pressure;Samples;Min_cycle;Max_cycle;Signal;HPM_P1;HPM_P2
2023/11/23 00:00:40;;;;;;;8.90;5.13;;;;;;;;;;6216409;23;20408;-87
2023/11/23 00:03:20;;;;;;;9.70;5.70;;;;;;;;;;6217457;23;20405;-86
2023/11/23 00:05:48;;;;;;;7.00;5.20;;;;;;;;;;6217738;23;20448;-84
2023/11/23 00:08:15;;;;;;;9.63;5.00;;;;;;;;;;6215784;23;20429;-85
2023/11/23 00:10:45;;;;;;;7.83;4.93;;;;;;;;;;6218303;23;20508;-87
2023/11/23 00:13:12;;;;;;;7.07;5.40;;;;;;;;;;6220019;23;20404;-85
2023/11/23 00:16:04;;;;;;;8.33;5.30;;;;;;;;;;6215659;23;20385;-88
2023/11/23 00:18:31;;;;;;;9.67;5.57;;;;;;;;;;6221175;23;20631;-86
2023/11/23 00:20:59;;;;;;;7.60;5.17;;;;;;;;;;6211983;23;20420;-84
2023/11/23 00:23:26;;;;;;;7.07;4.80;;;;;;;;;;6222366;23;20409;-83
2023/11/23 00:25:58;;;;;;;8.60;5.27;;;;;;;;;;6233981;23;20436;-87
2023/11/23 00:28:25;;;;;;;8.23;4.67;;;;;;;;;;6234865;23;20445;-88
2023/11/23 00:30:52;;;;;;;11.93;5.90;;;;;;;;;;6235718;23;20496;-88
2023/11/23 00:33:19;;;;;;;6.83;4.73;;;;;;;;;;6234619;23;20488;-85
2023/11/23 00:35:49;;;;;;;10.60;5.23;;;;;;;;;;6234010;23;20405;-87
2023/11/23 00:38:18;;;;;;;6.33;4.60;;;;;;;;;;6226384;23;20431;-85
2023/11/23 00:40:46;;;;;;;10.23;5.53;;;;;;;;;;6220229;23;20423;-86
2023/11/23 00:43:13;;;;;;;7.70;5.03;;;;;;;;;;6195319;23;20413;-86
2023/11/23 00:45:43;;;;;;;8.63;5.50;;;;;;;;;;6221501;23;20503;-86
2023/11/23 00:48:10;;;;;;;6.80;4.87;;;;;;;;;;6223020;23;20425;-83
2023/11/23 00:50:51;;;;;;;6.90;5.33;;;;;;;;;;6219040;23;20433;-83
2023/11/23 00:53:18;;;;;;;7.10;5.07;;;;;;;;;;6219383;23;21357;-86
2023/11/23 00:55:45;;;;;;;8.53;5.03;;;;;;;;;;6224335;23;20401;-86
2023/11/23 00:58:12;;;;;;;7.60;5.40;;;;;;;;;;6224498;23;20433;-88
2023/11/23 01:00:39;;;;;;;7.27;4.70;;;;;;;;;;6216833;23;20393;-88
2023/11/23 01:03:07;;;;;;;7.87;4.70;;;;;;;;;;6213443;23;20409;-87
2023/11/23 01:05:35;;;;;;;11.87;5.57;;;;;;;;;;6216426;23;20444;-85
2023/11/23 01:08:03;;;;;;;9.90;5.10;;;;;;;;;;6214304;23;20488;-85
2023/11/23 01:10:31;;;;;;;7.70;4.90;;;;;;;;;;6209093;23;20413;-88
2023/11/23 01:12:59;;;;;;;7.60;5.27;;;;;;;;;;6214801;23;20923;-86
2023/11/23 01:15:28;;;;;;;7.30;4.80;;;;;;;;;;6217268;23;20499;-87
2023/11/23 01:18:00;;;;;;;7.00;5.13;;;;;;;;;;6208635;23;20425;-86
2023/11/23 01:20:27;;;;;;;6.50;4.93;;;;;;;;;;6209318;23;20413;-85
2023/11/23 01:22:54;;;;;;;6.40;4.80;;;;;;;;;;6211232;23;20837;-85
2023/11/23 01:25:21;;;;;;;7.60;4.70;;;;;;;;;;6209491;23;20439;-87
2023/11/23 01:27:48;;;;;;;7.27;4.93;;;;;;;;;;6207598;23;20512;-84
2023/11/23 01:30:15;;;;;;;6.90;5.20;;;;;;;;;;6207631;23;20424;-86
2023/11/23 01:32:43;;;;;;;7.70;4.70;;;;;;;;;;6207687;23;20420;-87
2023/11/23 01:35:10;;;;;;;7.00;5.10;;;;;;;;;;6207256;23;20413;-86
2023/11/23 01:37:37;;;;;;;7.70;4.40;;;;;;;;;;6207073;23;20441;-86
2023/11/23 01:40:05;;;;;;;8.27;4.63;;;;;;;;;;6207388;23;20424;-85
2023/11/23 01:42:32;;;;;;;5.90;4.07;;;;;;;;;;6206872;23;20421;-83
2023/11/23 01:44:59;;;;;;;5.07;4.47;;;;;;;;;;6210129;23;20428;-86
2023/11/23 01:47:27;;;;;;;7.40;5.10;;;;;;;;;;6214502;23;20452;-87
2023/11/23 01:49:57;;;;;;;5.67;3.93;;;;;;;;;;6228103;23;20397;-88
2023/11/23 01:52:24;;;;;;;7.67;4.90;;;;;;;;;;6219735;23;20846;-84
2023/11/23 01:54:52;;;;;;;4.97;3.93;;;;;;;;;;6191833;23;20895;-85
2023/11/23 01:57:19;;;;;;;6.17;4.60;;;;;;;;;;6204879;23;20444;-86
2023/11/23 01:59:46;;;;;;;5.83;4.70;;;;;;;;;;6203636;23;20425;-86
2023/11/23 02:02:13;;;;;;;8.13;4.53;;;;;;;;;;6204283;23;20413;-85
2023/11/23 02:04:40;;;;;;;6.67;4.83;;;;;;;;;;6206644;23;20451;-86
2023/11/23 02:07:08;;;;;;;7.17;5.40;;;;;;;;;;6207250;23;20779;-86
2023/11/23 02:09:35;;;;;;;9.50;6.00;;;;;;;;;;6207608;23;20925;-87
2023/11/23 02:12:06;;;;;;;7.70;4.80;;;;;;;;;;6207636;23;20413;-85
2023/11/23 02:14:35;;;;;;;8.57;4.70;;;;;;;;;;6225498;23;20420;-87
2023/11/23 02:17:17;;;;;;;8.17;5.00;;;;;;;;;;6212042;23;20416;-85
2023/11/23 02:19:48;;;;;;;8.57;5.80;;;;;;;;;;6206464;23;20393;-85
2023/11/23 02:22:16;;;;;;;7.50;4.90;;;;;;;;;;6208772;23;20424;-87
2023/11/23 02:24:43;;;;;;;7.60;5.40;;;;;;;;;;6210624;23;20746;-87
2023/11/23 02:27:11;;;;;;;9.50;6.00;;;;;;;;;;6214266;23;20490;-87
2023/11/23 02:29:39;;;;;;;13.20;6.30;;;;;;;;;;6208053;23;20419;-86
2023/11/23 02:32:07;;;;;;;8.17;6.07;;;;;;;;;;6208439;23;20455;-87
2023/11/23 02:34:34;;;;;;;7.40;6.43;;;;;;;;;;6208794;23;20409;-84
2023/11/23 02:37:02;;;;;;;6.67;5.90;;;;;;;;;;6208180;23;20421;-85
2023/11/23 02:39:30;;;;;;;6.73;6.07;;;;;;;;;;6209912;23;20501;-86
2023/11/23 02:41:58;;;;;;;8.20;6.37;;;;;;;;;;6221568;23;20409;-86
2023/11/23 02:44:25;;;;;;;7.50;5.90;;;;;;;;;;6218523;23;20413;-88
2023/11/23 02:46:52;;;;;;;9.30;5.27;;;;;;;;;;6216885;23;20445;-85
2023/11/23 02:49:19;;;;;;;8.10;6.87;;;;;;;;;;6214637;23;20754;-85
2023/11/23 02:51:46;;;;;;;8.53;6.33;;;;;;;;;;6212217;23;20412;-88
2023/11/23 02:54:13;;;;;;;10.70;7.13;;;;;;;;;;6215695;23;20436;-88
2023/11/23 02:56:41;;;;;;;5.70;5.10;;;;;;;;;;6209274;23;20747;-87
2023/11/23 02:59:10;;;;;;;8.87;5.97;;;;;;;;;;6207490;23;20432;-86
2023/11/23 03:01:37;;;;;;;8.60;6.57;;;;;;;;;;6209034;23;20424;-87
2023/11/23 03:04:04;;;;;;;11.00;6.80;;;;;;;;;;6206864;23;20405;-88
2023/11/23 03:06:32;;;;;;;9.17;7.10;;;;;;;;;;6206628;23;20441;-87
2023/11/23 03:08:59;;;;;;;10.07;7.60;;;;;;;;;;6206824;23;20942;-88
2023/11/23 03:11:26;;;;;;;7.23;5.93;;;;;;;;;;6206358;23;20409;-84
2023/11/23 03:13:54;;;;;;;10.90;7.60;;;;;;;;;;6205395;23;20435;-86
2023/11/23 03:16:21;;;;;;;8.33;7.10;;;;;;;;;;6206869;23;20413;-87
2023/11/23 03:18:48;;;;;;;9.53;6.60;;;;;;;;;;6206331;23;20472;-84
2023/11/23 03:21:16;;;;;;;10.17;6.43;;;;;;;;;;6207471;23;20518;-88
2023/11/23 03:23:57;;;;;;;8.90;6.77;;;;;;;;;;6205220;23;20409;-86
2023/11/23 03:26:24;;;;;;;8.43;6.87;;;;;;;;;;6213970;23;20502;-86
2023/11/23 03:28:51;;;;;;;7.70;6.30;;;;;;;;;;6216670;23;20425;-87
2023/11/23 03:31:18;;;;;;;9.30;6.10;;;;;;;;;;6216925;23;20413;-88
2023/11/23 03:33:45;;;;;;;7.60;5.47;;;;;;;;;;6212176;23;20413;-86
2023/11/23 03:36:12;;;;;;;8.63;6.10;;;;;;;;;;6217853;23;21131;-87
2023/11/23 03:38:39;;;;;;;8.57;6.20;;;;;;;;;;6208386;23;20425;-85
2023/11/23 03:41:07;;;;;;;7.17;5.40;;;;;;;;;;6207539;23;20934;-86
2023/11/23 03:43:34;;;;;;;7.80;5.53;;;;;;;;;;6208954;23;20409;-87
2023/11/23 03:46:01;;;;;;;7.63;5.77;;;;;;;;;;6208050;23;20416;-85
2023/11/23 03:48:28;;;;;;;7.20;5.60;;;;;;;;;;6210281;23;20544;-87
2023/11/23 03:50:55;;;;;;;7.00;5.23;;;;;;;;;;6218278;23;20413;-88
2023/11/23 03:53:22;;;;;;;8.13;5.53;;;9.20;96.00;;;;;;6211577;23;20508;-88
2023/11/23 03:55:49;;;;;;;8.33;6.20;;;;;;;;;;6213429;23;20407;-85
2023/11/23 03:58:16;;;;;;;8.00;5.40;;;;;;;;;;6216393;23;20429;-88
2023/11/23 04:00:44;;;;;;;8.03;5.90;;;;;;;;;;6211906;23;20416;-87
2023/11/23 04:03:12;;;;;;;8.60;6.07;;;;;;;;;;6215533;23;20401;-86
2023/11/23 04:05:39;;;;;;;7.80;6.67;;;;;;;;;;6223014;23;20853;-87
2023/11/23 04:08:12;;;;;;;8.97;5.70;;;;;;;;;;6210504;23;20445;-87
2023/11/23 04:10:40;;;;;;;7.77;5.60;;;;;;;;;;6208534;23;20488;-87
2023/11/23 04:13:07;;;;;;;8.07;5.87;;;;;;;;;;6208370;23;20475;-86
2023/11/23 04:15:38;;;;;;;7.80;6.00;;;;;;;;;;6207712;23;20421;-86
2023/11/23 04:18:08;;;;;;;8.70;6.40;;;;;;;;;;6209639;23;20440;-87
2023/11/23 04:20:40;;;;;;;8.77;7.17;;;;;;;;;;6206612;23;20413;-87
2023/11/23 04:23:10;;;;;;;9.10;7.33;;;;;;;;;;6193884;23;20499;-88
2023/11/23 04:25:45;;;;;;;10.47;6.77;;;;;;;;;;6205518;23;20499;-87
2023/11/23 04:28:15;;;;;;;8.40;5.87;;;;;;;;;;6206460;23;20449;-87
2023/11/23 04:30:45;;;;;;;8.00;6.87;;;;;;;;;;6205833;23;21065;-86
2023/11/23 04:33:17;;;;;;;9.00;6.97;;;;;;;;;;6207346;23;20777;-85
2023/11/23 04:35:44;;;;;;;8.63;7.37;;;;;;;;;;6206764;23;20440;-86
2023/11/23 04:38:18;;;;;;;6.43;5.67;;;;;;;;;;6207602;23;20421;-86
2023/11/23 04:40:45;;;;;;;8.50;6.43;;;;;;;;;;6213942;23;20436;-84
2023/11/23 04:43:13;;;;;;;9.97;7.17;;;;;;;;;;6217704;23;20515;-86
2023/11/23 04:45:48;;;;;;;10.60;7.53;;;;;;;;;;6211561;23;20751;-85
2023/11/23 04:48:21;;;;;;;10.70;7.57;;;;;;;;;;6209347;23;21053;-87
2023/11/23 04:50:51;;;;;;;12.03;8.27;;;;;;;;;;6210695;23;20401;-86
2023/11/23 04:53:32;;;;;;;8.37;7.43;;;;;;;;;;6209043;23;20409;-85
2023/11/23 04:56:02;;;;;;;11.33;8.20;;;;;;;;;;6209504;23;20384;-86
2023/11/23 04:58:36;;;;;;;13.37;8.00;;;;;;;;;;6207196;23;20449;-87
2023/11/23 05:01:03;;;;;;;12.23;8.40;;;;;;;;;;6206388;23;20405;-87
2023/11/23 05:03:30;;;;;;;12.40;9.17;;;;;;;;;;6206137;23;20421;-86
2023/11/23 05:05:57;;;;;;;13.53;9.07;;;;;;;;;;6205984;23;20496;-88
2023/11/23 05:08:25;;;;;;;12.90;9.00;;;;;;;;;;6208147;23;20468;-87
2023/11/23 05:10:54;;;;;;;15.67;9.50;;;;;;;;;;6207777;23;20409;-87
2023/11/23 05:13:23;;;;;;;11.43;9.00;;;;;;;;;;6206212;23;20398;-85
2023/11/23 05:15:50;;;;;;;14.00;8.17;;;;;;;;;;6205231;23;20467;-87
2023/11/23 05:18:17;;;;;;;12.30;8.30;;;;;;;;;;6207841;23;20444;-86
2023/11/23 05:20:45;;;;;;;9.70;8.70;;;;;;;;;;6205878;23;20407;-86
2023/11/23 05:23:12;;;;;;;17.53;9.73;;;;;;;;;;6206323;23;20409;-87
2023/11/23 05:25:39;;;;;;;13.77;9.20;;;;;;;;;;6210604;23;20401;-86
2023/11/23 05:28:06;;;;;;;11.70;7.90;;;;;;;;;;6208475;23;20794;-88
2023/11/23 05:30:33;;;;;;;13.40;7.77;;;;;;;;;;6218232;23;20409;-87
2023/11/23 05:33:00;;;;;;;10.87;8.53;;;;;;;;;;6228391;23;20513;-88
2023/11/23 05:35:29;;;;;;;11.17;8.10;;;;;;;;;;6209922;23;21277;-88
2023/11/23 05:37:57;;;;;;;13.97;8.00;;;;;;;;;;6208840;23;20520;-87
2023/11/23 05:40:25;;;;;;;9.60;7.83;;;;;;;;;;6210389;23;20412;-84
2023/11/23 05:42:52;;;;;;;10.60;8.07;;;;;;;;;;6209769;23;20429;-85
2023/11/23 05:45:23;;;;;;;11.90;8.17;;;;;;;;;;6206028;23;20484;-89
2023/11/23 05:47:51;;;;;;;14.90;9.23;;;;;;;;;;6213646;23;20468;-85
2023/11/23 05:50:19;;;;;;;16.97;8.10;;;;;;;;;;6213366;23;20413;-87
2023/11/23 05:52:46;;;;;;;13.70;8.60;;;;;;;;;;6211502;23;20844;-87
2023/11/23 05:55:15;;;;;;;13.50;8.50;;;;;;;;;;6205243;23;20411;-86
2023/11/23 05:57:42;;;;;;;12.60;7.87;;;;;;;;;;6207415;23;20493;-86
2023/11/23 06:00:10;;;;;;;12.00;7.97;;;;;;;;;;6206687;23;20417;-85
2023/11/23 06:02:38;;;;;;;9.20;8.10;;;;;;;;;;6209794;23;20417;-85
2023/11/23 06:05:15;;;;;;;12.00;8.40;;;;;;;;;;6207283;23;20384;-85
2023/11/23 06:07:42;;;;;;;10.70;8.73;;;;;;;;;;6210248;23;20511;-87
2023/11/23 06:10:11;;;;;;;12.70;7.50;;;;;;;;;;6213265;23;20397;-85
2023/11/23 06:12:38;;;;;;;12.40;8.10;;;;;;;;;;6210275;23;20498;-85
2023/11/23 06:15:07;;;;;;;10.87;7.83;;;;;;;;;;6211212;23;20407;-85
2023/11/23 06:17:34;;;;;;;11.70;8.80;;;;;;;;;;6214763;23;20433;-86
2023/11/23 06:20:05;;;;;;;12.37;8.70;;;;;;;;;;6211389;23;20409;-88
2023/11/23 06:22:36;;;;;;;11.10;8.50;;;;;;;;;;6209438;23;20402;-86
2023/11/23 06:25:12;;;;;;;11.40;8.80;;;;;;;;;;6209144;23;20470;-85
2023/11/23 06:27:39;;;;;;;12.80;8.20;;;;;;;;;;6209975;23;20445;-87
2023/11/23 06:30:14;;;;;;;9.70;8.63;;;;;;;;;;6209890;23;20432;-85
2023/11/23 06:32:42;;;;;;;12.47;8.23;;;;;;;;;;6210315;23;20496;-84
2023/11/23 06:35:12;;;;;;;12.00;8.17;;;;;;;;;;6212012;23;20409;-87
2023/11/23 06:37:52;;;;;;;11.60;8.00;;;;;;;;;;6210808;23;21062;-88
2023/11/23 06:40:24;;;;;;;11.67;9.10;;;;;;;;;;6211933;23;20396;-88
2023/11/23 06:42:55;;;;;;;12.83;9.40;;;;;;;;;;6214397;23;20405;-88
2023/11/23 06:45:25;;;;;;;9.43;8.27;;;;;;;;;;6211664;23;20412;-90
2023/11/23 06:48:03;;;;;;;11.20;8.93;;;;;;;;;;6223071;23;20447;-86
2023/11/23 06:50:33;;;;;;;12.93;8.20;;;;;;;;;;6212581;23;20409;-86
2023/11/23 06:53:06;;;;;;;11.80;9.80;;;;;;;;;;6210359;23;20404;-86
2023/11/23 06:55:40;;;;;;;10.67;8.37;;;;;;;;;;6210982;23;20424;-85
2023/11/23 06:58:14;;;;;;;12.10;9.33;;;;;;;;;;6210233;23;20447;-86
2023/11/23 07:00:44;;;;;;;13.13;9.70;;;;;;;;;;6212858;23;21016;-84
2023/11/23 07:03:14;;;;;;;12.77;8.43;;;;;;;;;;6210945;23;20473;-85
2023/11/23 07:05:53;;;;;;;12.70;8.80;;;;;;;;;;6210823;23;20523;-83
2023/11/23 07:08:20;;;;;;;12.03;8.33;;;;;;;;;;6231405;23;20448;-88
2023/11/23 07:11:17;;;;;;;16.23;11.03;;;;;;;;;;6233655;23;20396;-87
2023/11/23 07:14:08;;;;;;;10.20;7.80;;;;;;;;;;6218703;22;20446;-88
2023/11/23 07:16:37;;;;;;;14.67;8.47;;;;;;;;;;6205543;23;20410;-88
2023/11/23 07:19:05;;;;;;;11.03;8.63;;;;;;;;;;6204451;23;20441;-87
2023/11/23 07:21:49;;;;;;;12.10;9.07;;;;;;;;;;6165814;23;20428;-87
2023/11/23 07:24:19;;;;;;;12.60;8.50;;;;;;;;;;6159644;23;20574;-85
2023/11/23 07:26:51;;;;;;;13.70;9.90;;;;;;;;;;6161022;23;20940;-89
2023/11/23 07:29:34;;;;;;;15.07;10.77;;;;;;;;;;6164377;23;20446;-86
2023/11/23 07:32:01;;;;;;;14.57;9.60;;;;;;;;;;6165675;23;20497;-88
2023/11/23 07:34:56;;;;;;;13.87;9.67;;;;;;;;;;6183953;23;20362;-88
2023/11/23 07:37:33;;;;;;;16.80;11.10;;;;;;;;;;6177085;23;20437;-88
2023/11/23 07:40:05;;;;;;;14.07;10.50;;;;;;;;;;6170353;23;20575;-86
2023/11/23 07:42:33;;;;;;;15.57;11.40;;;;;;;;;;6153794;23;20410;-85
2023/11/23 07:45:07;;;;;;;12.30;9.37;;;;;;;;;;6181070;23;20442;-85
2023/11/23 07:47:34;;;;;;;13.63;10.37;;;;;;;;;;6169358;23;20449;-88
2023/11/23 07:50:04;;;;;;;13.53;9.50;;;;;;;;;;6187023;23;20398;-85
2023/11/23 07:52:31;;;;;;;12.23;9.90;;;;;;;;;;6181214;23;20512;-89
2023/11/23 07:55:09;;;;;;;11.63;9.37;;;;;;;;;;6179968;23;21251;-85
2023/11/23 07:57:52;;;;;;;11.97;8.43;;;;;;;;;;6153798;23;20943;-85
2023/11/23 08:00:31;;;;;;;15.63;9.90;;;;;;;;;;6154516;23;20416;-84
2023/11/23 08:02:58;;;;;;;14.30;9.03;;;;;;;;;;6153140;23;20403;-86
2023/11/23 08:05:28;;;;;;;12.67;9.30;;;;;;;;;;6153610;23;20429;-87
2023/11/23 08:07:56;;;;;;;14.13;9.50;;;;;;;;;;6179538;23;20457;-85
2023/11/23 08:10:26;;;;;;;14.03;9.30;;;;;;;;;;6153006;23;20420;-86
2023/11/23 08:12:53;;;;;;;13.87;10.50;;;;;;;;;;6154435;23;20879;-86
2023/11/23 08:15:27;;;;;;;12.80;9.30;;;;;;;;;;6124691;23;20556;-87
2023/11/23 08:18:01;;;;;;;14.00;10.00;;;;;;;;;;6125378;23;20446;-86
2023/11/23 08:20:38;;;;;;;14.17;9.40;;;;;;;;;;6124654;23;20837;-86
2023/11/23 08:23:21;;;;;;;12.07;9.60;;;;;;;;;;6124599;23;20991;-85
2023/11/23 08:26:00;;;;;;;13.90;9.77;;;;;;;;;;6158065;23;20442;-85
2023/11/23 08:28:36;;;;;;;12.50;8.40;;;;;;;;;;6125281;23;20450;-86
2023/11/23 08:31:06;;;;;;;14.87;10.40;;;;;;;;;;6125180;23;20453;-88
2023/11/23 08:33:37;;;;;;;16.03;10.70;;;;;;;;;;6126632;23;20422;-87
2023/11/23 08:36:05;;;;;;;12.50;9.10;;;;;;;;;;6126889;23;20435;-85
2023/11/23 08:38:37;;;;;;;11.77;8.60;;;;;;;;;;6149634;23;20490;-88
2023/11/23 08:41:05;;;;;;;11.30;8.93;;;;;;;;;;6151013;23;20410;-87
2023/11/23 08:43:33;;;;;;;11.93;9.57;;;;;;;;;;6151571;23;20423;-87
2023/11/23 08:46:07;;;;;;;11.97;8.90;;;;;;;;;;6126101;23;20418;-89
2023/11/23 08:48:45;;;;;;;13.03;9.27;;;;;;;;;;6142703;23;20459;-89
2023/11/23 08:51:20;;;;;;;12.53;9.00;;;;;;;;;;6141251;23;20429;-88
2023/11/23 08:53:51;;;;;;;12.10;8.60;;;;;;;;;;6134297;23;20426;-87
2023/11/23 08:56:20;;;;;;;14.63;8.63;;;;;;;;;;6132460;23;20411;-87
2023/11/23 08:58:54;;;;;;;10.57;8.40;;;;;;;;;;6127409;23;20525;-85
2023/11/23 09:01:26;;;;;;;9.50;8.10;;;;;;;;;;6124739;23;21250;-85
2023/11/23 09:04:09;;;;;;;13.20;9.53;;;;;;;;;;6126389;23;20411;-90
2023/11/23 09:06:44;;;;;;;10.13;8.33;;;;;;;;;;6124485;23;20418;-88
2023/11/23 09:09:12;;;;;;;13.60;8.33;;;;;;;;;;6149711;23;20450;-87
2023/11/23 09:11:44;;;;;;;11.07;9.37;;;;;;;;;;6148127;23;20410;-87
2023/11/23 09:14:11;;;;;;;11.97;8.40;;;;;;;;;;6137938;23;20422;-88
2023/11/23 09:16:40;;;;;;;10.33;8.67;;;;;;;;;;6177246;23;20398;-87
2023/11/23 09:19:07;;;;;;;12.00;9.70;;;;;;;;;;6177015;23;20459;-86
2023/11/23 09:21:34;;;;;;;12.60;8.43;;;;;;;;;;6151115;23;20470;-88
2023/11/23 09:24:03;;;;;;;11.00;8.73;;;;;;;;;;6151374;23;20420;-87
2023/11/23 09:26:32;;;;;;;9.70;7.83;;;;;;;;;;6150919;23;20394;-87
2023/11/23 09:29:03;;;;;;;11.77;8.57;;;;;;;;;;6152854;23;20545;-88
2023/11/23 09:31:31;;;;;;;10.37;8.23;;;;;;;;;;6153296;23;20406;-87
2023/11/23 09:33:59;;;;;;;15.23;8.67;;;;;;;;;;6153691;23;20421;-87
2023/11/23 09:36:29;;;;;;;13.13;8.90;;;;;;;;;;6152769;23;20900;-86
2023/11/23 09:39:00;;;;;;;9.17;7.40;;;;;;;;;;6152707;23;20437;-86
2023/11/23 09:41:29;;;;;;;16.30;9.17;;;;;;;;;;6153233;23;20414;-87
2023/11/23 09:43:57;;;;;;;12.17;9.27;;;;;;;;;;6184109;23;20446;-87
2023/11/23 09:46:26;;;;;;;11.67;9.10;;;;;;;;;;6158257;23;20446;-87
2023/11/23 09:48:54;;;;;;;12.90;9.63;;;;;;;;;;6179436;23;20886;-87
2023/11/23 09:51:21;;;;;;;9.20;8.27;;;;;;;;;;6152946;23;20413;-87
2023/11/23 09:53:52;;;;;;;10.67;8.73;;;;;;;;;;6179711;23;21375;-85
2023/11/23 09:56:23;;;;;;;11.60;9.40;;;;;;;;;;6152959;23;20413;-87
2023/11/23 09:58:53;;;;;;;14.27;9.70;;;;;;;;;;6153015;23;20434;-87
2023/11/23 10:01:32;;;;;;;10.90;8.37;;;;;;;;;;6177420;23;20409;-86
2023/11/23 10:04:01;;;;;;;11.00;8.87;;;;;;;;;;6157650;23;20410;-87
2023/11/23 10:06:29;;;;;;;13.20;9.40;;;;;;;;;;6186601;23;20394;-85
2023/11/23 10:08:58;;;;;;;18.13;11.77;;;;;;;;;;6163165;23;20445;-86
2023/11/23 10:11:29;;;;;;;9.83;8.40;;;;;;;;;;6165407;23;20398;-86
2023/11/23 10:13:56;;;;;;;9.20;8.30;;;;;;;;;;6153488;23;20426;-87
2023/11/23 10:16:23;;;;;;;10.57;8.53;;;;;;;;;;6127805;23;20406;-87
2023/11/23 10:18:51;;;;;;;11.77;7.83;;;;;;;;;;6132979;23;20749;-86
2023/11/23 10:21:18;;;;;;;10.40;9.10;;;;;;;;;;6159954;23;20415;-87
2023/11/23 10:23:45;;;;;;;8.77;7.90;;;;;;;;;;6136174;23;20510;-89
2023/11/23 10:26:12;;;;;;;10.87;7.90;;;;;;;;;;6161611;23;20421;-86
2023/11/23 10:28:41;;;;;;;11.70;8.20;;;;;;;;;;6133002;23;21368;-88
2023/11/23 10:31:08;;;;;;;9.43;7.70;;;;;;;;;;6131921;23;21140;-89
2023/11/23 10:33:39;;;;;;;12.00;7.40;;;;;;;;;;6126845;23;20904;-86
2023/11/23 10:36:08;;;;;;;10.80;8.97;;;;;;;;;;6125346;23;20411;-87
2023/11/23 10:38:39;;;;;;;11.17;7.57;;;;;;;;;;6124050;23;21077;-87
2023/11/23 10:41:09;;;;;;;9.93;8.10;;;;;;;;;;6124277;23;20478;-87
2023/11/23 10:43:37;;;;;;;9.73;7.63;;;;;;;;;;6150362;23;21246;-85
2023/11/23 10:46:07;;;;;;;11.27;7.93;;;;;;;;;;6150750;23;20410;-87
2023/11/23 10:48:34;;;;;;;11.00;8.00;;;;;;;;;;6127877;23;20448;-85
2023/11/23 10:51:05;;;;;;;8.37;7.50;;;;;;;;;;6134689;23;20407;-86
2023/11/23 10:53:33;;;;;;;7.47;6.77;;;;;;;;;;6161433;23;20550;-87
2023/11/23 10:56:08;;;;;;;8.03;6.83;;;;;;;;;;6135618;23;20410;-86
2023/11/23 10:58:39;;;;;;;9.67;7.43;;;;;;;;;;6135903;23;20827;-86
2023/11/23 11:01:07;;;;;;;8.03;6.70;;;;;;;;;;6162498;23;20411;-87
2023/11/23 11:03:39;;;;;;;10.00;8.00;;;;;;;;;;6124178;23;20446;-86
2023/11/23 11:06:12;;;;;;;7.80;7.00;;;;;;;;;;6128199;23;20673;-87
2023/11/23 11:08:44;;;;;;;14.07;7.87;;;;;;;;;;6128916;23;20443;-87
2023/11/23 11:11:13;;;;;;;7.27;5.87;;;;;;;;;;6126151;23;20489;-87
2023/11/23 11:13:44;;;;;;;9.63;8.47;;;;;;;;;;6136055;23;20504;-87
2023/11/23 11:16:17;;;;;;;8.17;7.00;;;;;;;;;;6158529;23;20409;-86
2023/11/23 11:18:51;;;;;;;6.43;5.73;;;;;;;;;;6159599;23;20442;-86
2023/11/23 11:21:21;;;;;;;7.83;5.87;;;;;;;;;;6158433;23;20481;-88
2023/11/23 11:23:52;;;;;;;7.90;6.67;;;;;;;;;;6184450;23;20502;-88
2023/11/23 11:26:30;;;;;;;8.30;5.97;;;;;;;;;;6157571;23;20886;-84
2023/11/23 11:29:02;;;;;;;6.07;5.10;;;;;;;;;;6156564;23;20513;-86
2023/11/23 11:31:31;;;;;;;7.33;5.70;;;;;;;;;;6182155;23;20512;-87
2023/11/23 11:34:03;;;;;;;7.17;6.17;;;;;;;;;;6156492;23;20421;-85
2023/11/23 11:36:32;;;;;;;7.03;6.13;;;;;;;;;;6157593;23;20391;-87
2023/11/23 11:39:05;;;;;;;8.43;6.20;;;;;;;;;;6157054;23;20448;-86
2023/11/23 11:41:34;;;;;;;6.20;5.53;;;;;;;;;;6161777;23;20410;-88
2023/11/23 11:44:04;;;;;;;7.27;6.43;;;;;;;;;;6158622;23;20494;-87
2023/11/23 11:46:31;;;;;;;12.77;6.73;;;;;;;;;;6155952;23;20414;-86
2023/11/23 11:49:01;;;;;;;7.10;6.40;;;;;;;;;;6157273;23;20522;-88
2023/11/23 11:51:29;;;;;;;9.43;6.20;;;;;;;;;;6158582;23;20425;-89
2023/11/23 11:53:56;;;;;;;6.50;5.90;;;;;;;;;;6192637;23;20435;-87
2023/11/23 11:56:24;;;;;;;7.13;5.80;;;;;;;;;;6162049;23;20413;-88
2023/11/23 11:58:52;;;;;;;8.07;6.47;;;;;;;;;;6158659;23;20452;-86
2023/11/23 12:01:21;;;;;;;8.60;5.93;;;;;;;;;;6161576;23;20405;-88
2023/11/23 12:03:52;;;;;;;9.03;7.67;;;;;;;;;;6188087;23;20478;-85
2023/11/23 12:06:21;;;;;;;11.10;6.70;;;;;;;;;;6175558;23;20426;-86
2023/11/23 12:08:49;;;;;;;6.40;5.80;;;;;;;;;;6163930;23;20559;-86
2023/11/23 12:11:28;;;;;;;6.90;6.17;;;;;;;;;;6158226;23;20733;-86
2023/11/23 12:13:57;;;;;;;12.53;6.47;;;;;;;;;;6164472;23;20417;-86
2023/11/23 12:16:34;;;;;;;9.13;7.37;;;;;;;;;;6156540;23;20905;-85
2023/11/23 12:19:02;;;;;;;8.70;6.27;;;;;;;;;;6183232;23;20430;-87
2023/11/23 12:21:33;;;;;;;7.63;5.63;;;;;;;;;;6163872;23;20737;-85
2023/11/23 12:24:02;;;;;;;6.97;6.27;;;;;;;;;;6191508;23;20437;-88
2023/11/23 12:26:32;;;;;;;7.50;5.83;;;;;;;;;;6161358;23;20424;-86
2023/11/23 12:29:00;;;;;;;7.83;6.77;;;;;;;;;;6160000;23;21278;-87
2023/11/23 12:31:34;;;;;;;5.87;5.33;;;;;;;;;;6157121;23;20937;-86
2023/11/23 12:34:01;;;;;;;6.73;6.03;;;;;;;;;;6150960;23;20497;-87
2023/11/23 12:36:29;;;;;;;8.20;5.77;;;;;;;;;;6151930;23;20465;-86
2023/11/23 12:38:56;;;;;;;7.10;5.30;;;;;;;;;;6154554;23;20527;-87
2023/11/23 12:41:24;;;;;;;6.37;5.70;;;;;;;;;;6180270;23;20413;-87
2023/11/23 12:43:52;;;;;;;7.67;6.23;;;;;;;;;;6155070;23;20420;-87
2023/11/23 12:46:19;;;;;;;7.43;5.87;;;;;;;;;;6156085;23;20809;-89
2023/11/23 12:48:51;;;;;;;7.57;6.20;;;;;;;;;;6158143;23;20445;-86
2023/11/23 12:51:19;;;;;;;5.67;5.17;;;;;;;;;;6153937;23;21170;-87
2023/11/23 12:53:48;;;;;;;6.13;5.53;;;;;;;;;;6156741;23;20777;-85
2023/11/23 12:56:17;;;;;;;6.77;5.80;;;;;;;;;;6159762;23;20429;-87
2023/11/23 12:58:44;;;;;;;8.80;6.70;;;;;;;;;;6160596;23;20437;-85
2023/11/23 13:01:13;;;;;;;6.57;5.83;;;;;;;;;;6156389;23;21301;-87
2023/11/23 13:03:40;;;;;;;6.83;5.67;;;;;;;;;;6155633;23;20418;-85
2023/11/23 13:06:12;;;;;;;5.63;5.00;;;;;;;;;;6156691;23;21324;-89
2023/11/23 13:08:40;;;;;;;8.83;6.63;;;;;;;;;;6154123;23;20450;-87
2023/11/23 13:11:07;;;;;;;8.50;7.53;;;;;;;;;;6154242;23;20417;-86
2023/11/23 13:13:34;;;;;;;4.90;4.43;;;;;;;;;;6156410;23;20505;-85
2023/11/23 13:16:02;;;;;;;7.23;5.17;;;;;;;;;;6158583;23;20406;-88
2023/11/23 13:18:30;;;;;;;5.83;4.63;;;;;;;;;;6184072;23;20460;-85
2023/11/23 13:21:17;;;;;;;6.23;4.50;;;;;;;;;;6164402;23;20410;-85
2023/11/23 13:23:50;;;;;;;5.20;4.70;;;;;;;;;;6159148;23;20878;-87
2023/11/23 13:26:17;;;;;;;8.80;3.90;;;;;;;;;;6157411;23;20394;-86
2023/11/23 13:28:48;;;;;;;8.93;5.50;;;;;;;;;;6171306;23;20445;-85
2023/11/23 13:31:16;;;;;;;6.67;4.50;;;;;;;;;;6158592;23;20425;-87
2023/11/23 13:33:44;;;;;;;6.27;4.00;;;;;;;;;;6157540;23;20440;-84
2023/11/23 13:36:14;;;;;;;4.70;3.87;;;;;;;;;;6183936;23;20410;-87
2023/11/23 13:38:44;;;;;;;6.77;3.90;;;;;;;;;;6168521;23;20445;-88
2023/11/23 13:41:11;;;;;;;5.20;3.93;;;;;;;;;;6162809;23;20410;-87
2023/11/23 13:43:39;;;;;;;4.73;4.30;;;;;;;;;;6182747;23;20442;-85
2023/11/23 13:46:07;;;;;;;3.90;3.53;;;;;;;;;;6158938;23;20398;-86
2023/11/23 13:48:36;;;;;;;5.07;3.83;;;;;;;;;;6199802;23;20426;-89
2023/11/23 13:51:03;;;;;;;5.73;3.87;;;;;;;;;;6203813;23;20416;-88
2023/11/23 13:53:31;;;;;;;3.93;3.53;;;;;;;;;;6178278;23;20492;-88
2023/11/23 13:55:58;;;;;;;4.63;4.00;;;;;;;;;;6204563;23;20400;-87
2023/11/23 13:58:29;;;;;;;4.00;3.70;;;;;;;;;;6203922;23;20413;-84
2023/11/23 14:01:00;;;;;;;4.33;3.50;;;;;;;;;;6160957;23;20500;-87
2023/11/23 14:03:31;;;;;;;5.53;3.57;;;;;;;;;;6161787;23;20439;-85
2023/11/23 14:05:59;;;;;;;5.20;3.60;;;;;;;;;;6159878;23;20410;-87
2023/11/23 14:08:29;;;;;;;6.13;5.10;;;;;;;;;;6187520;23;20553;-88
2023/11/23 14:10:59;;;;;;;6.07;3.97;;;;;;;;;;6159237;23;20406;-88
2023/11/23 14:13:26;;;;;;;6.60;3.53;;;;;;;;;;6152707;23;20427;-85
2023/11/23 14:15:57;;;;;;;3.60;3.30;;;;;;;;;;6162166;23;20419;-86
2023/11/23 14:18:28;;;;;;;3.63;3.33;;;;;;;;;;6167029;23;20435;-84
2023/11/23 14:20:57;;;;;;;4.40;2.90;;;;;;;;;;6163591;23;20447;-87
2023/11/23 14:23:27;;;;;;;4.93;3.33;;;;;;;;;;6136699;23;20406;-85
2023/11/23 14:26:08;;;;;;;4.93;3.73;;;;;;;;;;6133585;23;20383;-88
2023/11/23 14:28:35;;;;;;;4.90;3.80;;;;;;;;;;6133628;23;20434;-87
2023/11/23 14:31:18;;;;;;;3.90;3.47;;;;;;;;;;6129215;23;20474;-86
2023/11/23 14:33:47;;;;;;;4.10;3.60;;;;;;;;;;6157749;23;20406;-87
2023/11/23 14:36:19;;;;;;;10.73;3.53;;;;;;;;;;6129473;23;20414;-86
2023/11/23 14:38:48;;;;;;;3.20;2.90;;;;;;;;;;6128854;23;20431;-86
2023/11/23 14:41:22;;;;;;;3.40;3.10;;;;;;;;;;6130315;23;20425;-87
2023/11/23 14:43:53;;;;;;;5.73;3.80;;;;;;;;;;6129926;23;20408;-87
2023/11/23 14:46:23;;;;;;;3.13;2.93;;;;;;;;;;6130539;23;20470;-88
2023/11/23 14:48:57;;;;;;;3.20;2.70;;;;;;;;;;6129497;23;20892;-84
2023/11/23 14:51:31;;;;;;;3.63;2.80;;;;;;;;;;6129634;23;20406;-88